sensor_id;sensor_type;location;lat;lon;timestamp;temperature;humidity
3842;DHT22;1936;47.074;15.336;2023-03-01T00:00:42;3.00;70.90
3842;DHT22;1936;47.074;15.336;2023-03-01T00:02:48;3.20;70.00
3842;DHT22;1936;47.074;15.336;2023-03-01T00:04:53;3.30;69.30
3842;DHT22;1936;47.074;15.336;2023-03-01T00:06:56;3.20;69.40
3842;DHT22;1936;47.074;15.336;2023-03-01T00:09:00;3.20;69.30
3842;DHT22;1936;47.074;15.336;2023-03-01T00:11:05;3.30;69.20
3842;DHT22;1936;47.074;15.336;2023-03-01T00:13:09;3.40;68.40
3842;DHT22;1936;47.074;15.336;2023-03-01T00:15:12;3.40;68.40
3842;DHT22;1936;47.074;15.336;2023-03-01T00:17:16;3.40;68.40
3842;DHT22;1936;47.074;15.336;2023-03-01T00:19:20;3.50;67.80
3842;DHT22;1936;47.074;15.336;2023-03-01T00:21:25;3.40;67.60
3842;DHT22;1936;47.074;15.336;2023-03-01T00:23:29;3.40;67.80
3842;DHT22;1936;47.074;15.336;2023-03-01T00:25:32;3.20;69.20
3842;DHT22;1936;47.074;15.336;2023-03-01T00:27:36;3.20;69.70
3842;DHT22;1936;47.074;15.336;2023-03-01T00:29:39;3.30;69.10
3842;DHT22;1936;47.074;15.336;2023-03-01T00:31:42;3.30;68.50
3842;DHT22;1936;47.074;15.336;2023-03-01T00:33:46;3.30;68.40
3842;DHT22;1936;47.074;15.336;2023-03-01T00:35:50;3.40;68.30
3842;DHT22;1936;47.074;15.336;2023-03-01T00:37:55;3.40;68.30
3842;DHT22;1936;47.074;15.336;2023-03-01T00:40:00;3.30;69.80
3842;DHT22;1936;47.074;15.336;2023-03-01T00:42:03;3.30;69.90
3842;DHT22;1936;47.074;15.336;2023-03-01T00:44:06;3.30;69.90
3842;DHT22;1936;47.074;15.336;2023-03-01T00:46:11;3.30;69.60
3842;DHT22;1936;47.074;15.336;2023-03-01T00:48:15;3.40;69.40
3842;DHT22;1936;47.074;15.336;2023-03-01T00:50:19;3.40;69.60
3842;DHT22;1936;47.074;15.336;2023-03-01T00:52:23;3.40;69.70
3842;DHT22;1936;47.074;15.336;2023-03-01T00:54:28;3.30;70.70
3842;DHT22;1936;47.074;15.336;2023-03-01T00:56:33;3.40;70.20
3842;DHT22;1936;47.074;15.336;2023-03-01T00:58:37;3.50;69.70
3842;DHT22;1936;47.074;15.336;2023-03-01T01:00:40;3.50;69.60
3842;DHT22;1936;47.074;15.336;2023-03-01T01:02:43;3.40;69.10
3842;DHT22;1936;47.074;15.336;2023-03-01T01:04:47;3.30;69.80
3842;DHT22;1936;47.074;15.336;2023-03-01T01:06:51;3.30;71.00
3842;DHT22;1936;47.074;15.336;2023-03-01T01:08:55;3.00;71.30
3842;DHT22;1936;47.074;15.336;2023-03-01T01:11:00;3.00;71.50
3842;DHT22;1936;47.074;15.336;2023-03-01T01:13:03;3.10;72.00
3842;DHT22;1936;47.074;15.336;2023-03-01T01:15:08;3.30;71.00
3842;DHT22;1936;47.074;15.336;2023-03-01T01:17:14;3.40;69.80
3842;DHT22;1936;47.074;15.336;2023-03-01T01:19:17;3.40;69.80
3842;DHT22;1936;47.074;15.336;2023-03-01T01:21:23;3.30;69.90
3842;DHT22;1936;47.074;15.336;2023-03-01T01:23:27;3.40;70.50
3842;DHT22;1936;47.074;15.336;2023-03-01T01:25:29;3.40;70.10
3842;DHT22;1936;47.074;15.336;2023-03-01T01:27:34;3.40;69.90
3842;DHT22;1936;47.074;15.336;2023-03-01T01:29:37;3.30;70.10
3842;DHT22;1936;47.074;15.336;2023-03-01T01:31:42;3.30;69.80
3842;DHT22;1936;47.074;15.336;2023-03-01T01:33:46;3.40;69.90
3842;DHT22;1936;47.074;15.336;2023-03-01T01:35:49;3.50;69.10
3842;DHT22;1936;47.074;15.336;2023-03-01T01:37:53;3.50;68.70
3842;DHT22;1936;47.074;15.336;2023-03-01T01:39:57;3.50;68.40
3842;DHT22;1936;47.074;15.336;2023-03-01T01:42:00;3.50;68.30
3842;DHT22;1936;47.074;15.336;2023-03-01T01:44:14;3.50;68.30
3842;DHT22;1936;47.074;15.336;2023-03-01T01:46:25;3.50;69.20
3842;DHT22;1936;47.074;15.336;2023-03-01T01:48:38;3.50;69.00
3842;DHT22;1936;47.074;15.336;2023-03-01T01:50:43;3.60;68.90
3842;DHT22;1936;47.074;15.336;2023-03-01T01:52:51;3.50;68.90
3842;DHT22;1936;47.074;15.336;2023-03-01T01:54:59;3.50;69.90
3842;DHT22;1936;47.074;15.336;2023-03-01T01:57:09;3.40;70.20
3842;DHT22;1936;47.074;15.336;2023-03-01T01:59:16;3.40;70.60
3842;DHT22;1936;47.074;15.336;2023-03-01T02:01:20;3.40;70.60
3842;DHT22;1936;47.074;15.336;2023-03-01T02:03:26;3.50;70.00
3842;DHT22;1936;47.074;15.336;2023-03-01T02:05:36;3.40;69.90
3842;DHT22;1936;47.074;15.336;2023-03-01T02:07:42;3.50;70.10
3842;DHT22;1936;47.074;15.336;2023-03-01T02:09:47;3.50;69.00
3842;DHT22;1936;47.074;15.336;2023-03-01T02:11:52;3.50;68.70
3842;DHT22;1936;47.074;15.336;2023-03-01T02:13:56;3.50;68.70
3842;DHT22;1936;47.074;15.336;2023-03-01T02:16:02;3.50;68.10
3842;DHT22;1936;47.074;15.336;2023-03-01T02:18:07;3.50;68.70
3842;DHT22;1936;47.074;15.336;2023-03-01T02:20:19;3.40;69.70
3842;DHT22;1936;47.074;15.336;2023-03-01T02:22:29;3.50;69.60
3842;DHT22;1936;47.074;15.336;2023-03-01T02:24:38;3.60;69.00
3842;DHT22;1936;47.074;15.336;2023-03-01T02:26:47;3.70;68.30
3842;DHT22;1936;47.074;15.336;2023-03-01T02:28:53;3.50;69.20
3842;DHT22;1936;47.074;15.336;2023-03-01T02:30:57;3.30;69.10
3842;DHT22;1936;47.074;15.336;2023-03-01T02:33:18;3.20;69.20
3842;DHT22;1936;47.074;15.336;2023-03-01T02:35:21;3.20;70.10
3842;DHT22;1936;47.074;15.336;2023-03-01T02:37:26;3.30;69.80
3842;DHT22;1936;47.074;15.336;2023-03-01T02:39:34;3.30;69.90
3842;DHT22;1936;47.074;15.336;2023-03-01T02:41:42;3.30;70.10
3842;DHT22;1936;47.074;15.336;2023-03-01T02:43:46;3.30;70.00
3842;DHT22;1936;47.074;15.336;2023-03-01T02:45:52;3.40;70.40
3842;DHT22;1936;47.074;15.336;2023-03-01T02:47:56;3.50;69.70
3842;DHT22;1936;47.074;15.336;2023-03-01T02:50:00;3.60;68.70
3842;DHT22;1936;47.074;15.336;2023-03-01T02:54:38;3.40;70.60
3842;DHT22;1936;47.074;15.336;2023-03-01T02:56:44;3.40;70.20
3842;DHT22;1936;47.074;15.336;2023-03-01T02:58:50;3.20;69.70
3842;DHT22;1936;47.074;15.336;2023-03-01T03:00:55;3.30;69.50
3842;DHT22;1936;47.074;15.336;2023-03-01T03:02:59;3.30;70.00
3842;DHT22;1936;47.074;15.336;2023-03-01T03:05:08;3.40;69.20
3842;DHT22;1936;47.074;15.336;2023-03-01T03:07:12;3.40;69.40
3842;DHT22;1936;47.074;15.336;2023-03-01T03:09:17;3.50;68.90
3842;DHT22;1936;47.074;15.336;2023-03-01T03:11:21;3.50;69.00
3842;DHT22;1936;47.074;15.336;2023-03-01T03:13:24;3.50;69.30
3842;DHT22;1936;47.074;15.336;2023-03-01T03:15:30;3.50;69.10
3842;DHT22;1936;47.074;15.336;2023-03-01T03:17:36;3.50;69.00
3842;DHT22;1936;47.074;15.336;2023-03-01T03:19:40;3.30;70.50
3842;DHT22;1936;47.074;15.336;2023-03-01T03:21:46;3.40;70.60
3842;DHT22;1936;47.074;15.336;2023-03-01T03:23:49;3.40;70.90
3842;DHT22;1936;47.074;15.336;2023-03-01T03:25:53;3.50;70.00
3842;DHT22;1936;47.074;15.336;2023-03-01T03:27:57;3.50;69.60
3842;DHT22;1936;47.074;15.336;2023-03-01T03:30:00;3.60;69.20
3842;DHT22;1936;47.074;15.336;2023-03-01T03:32:04;3.60;68.90
3842;DHT22;1936;47.074;15.336;2023-03-01T03:34:09;3.50;69.20
3842;DHT22;1936;47.074;15.336;2023-03-01T03:36:21;3.40;70.80
3842;DHT22;1936;47.074;15.336;2023-03-01T03:38:24;3.40;71.00
3842;DHT22;1936;47.074;15.336;2023-03-01T03:40:28;3.40;71.70
3842;DHT22;1936;47.074;15.336;2023-03-01T03:42:32;3.30;72.40
3842;DHT22;1936;47.074;15.336;2023-03-01T03:44:37;3.40;72.00
3842;DHT22;1936;47.074;15.336;2023-03-01T03:46:40;3.50;71.30
3842;DHT22;1936;47.074;15.336;2023-03-01T03:48:45;3.40;71.30
3842;DHT22;1936;47.074;15.336;2023-03-01T03:50:51;3.40;71.70
3842;DHT22;1936;47.074;15.336;2023-03-01T03:52:55;3.40;71.10
3842;DHT22;1936;47.074;15.336;2023-03-01T03:54:58;3.50;71.30
3842;DHT22;1936;47.074;15.336;2023-03-01T03:57:02;3.50;71.00
3842;DHT22;1936;47.074;15.336;2023-03-01T03:59:05;3.40;71.10
3842;DHT22;1936;47.074;15.336;2023-03-01T04:01:09;3.50;71.20
3842;DHT22;1936;47.074;15.336;2023-03-01T04:03:14;3.40;70.90
3842;DHT22;1936;47.074;15.336;2023-03-01T04:05:19;3.40;71.20
3842;DHT22;1936;47.074;15.336;2023-03-01T04:07:23;3.40;71.00
3842;DHT22;1936;47.074;15.336;2023-03-01T04:09:27;3.40;71.00
3842;DHT22;1936;47.074;15.336;2023-03-01T04:11:32;3.30;71.20
3842;DHT22;1936;47.074;15.336;2023-03-01T04:13:36;3.30;72.10
3842;DHT22;1936;47.074;15.336;2023-03-01T04:15:40;3.30;71.70
3842;DHT22;1936;47.074;15.336;2023-03-01T04:17:46;3.30;72.00
3842;DHT22;1936;47.074;15.336;2023-03-01T04:19:50;3.30;71.40
3842;DHT22;1936;47.074;15.336;2023-03-01T04:21:53;3.30;71.70
3842;DHT22;1936;47.074;15.336;2023-03-01T04:23:59;3.40;71.70
3842;DHT22;1936;47.074;15.336;2023-03-01T04:26:03;3.40;71.60
3842;DHT22;1936;47.074;15.336;2023-03-01T04:28:08;3.40;70.90
3842;DHT22;1936;47.074;15.336;2023-03-01T04:30:12;3.40;70.70
3842;DHT22;1936;47.074;15.336;2023-03-01T04:32:16;3.40;71.00
3842;DHT22;1936;47.074;15.336;2023-03-01T04:34:20;3.40;71.00
3842;DHT22;1936;47.074;15.336;2023-03-01T04:36:25;3.50;70.90
3842;DHT22;1936;47.074;15.336;2023-03-01T04:38:29;3.40;71.00
3842;DHT22;1936;47.074;15.336;2023-03-01T04:40:35;3.40;71.10
3842;DHT22;1936;47.074;15.336;2023-03-01T04:42:38;3.20;70.50
3842;DHT22;1936;47.074;15.336;2023-03-01T04:44:42;3.20;70.80
3842;DHT22;1936;47.074;15.336;2023-03-01T04:46:48;3.20;71.40
3842;DHT22;1936;47.074;15.336;2023-03-01T04:48:51;3.30;71.40
3842;DHT22;1936;47.074;15.336;2023-03-01T04:50:55;3.40;70.80
3842;DHT22;1936;47.074;15.336;2023-03-01T04:52:58;3.40;71.40
3842;DHT22;1936;47.074;15.336;2023-03-01T04:55:02;3.40;70.70
3842;DHT22;1936;47.074;15.336;2023-03-01T04:57:08;3.40;70.50
3842;DHT22;1936;47.074;15.336;2023-03-01T04:59:11;3.50;70.10
3842;DHT22;1936;47.074;15.336;2023-03-01T05:01:16;3.30;69.70
3842;DHT22;1936;47.074;15.336;2023-03-01T05:03:21;3.40;70.10
3842;DHT22;1936;47.074;15.336;2023-03-01T05:05:26;3.40;70.40
3842;DHT22;1936;47.074;15.336;2023-03-01T05:07:30;3.40;70.50
3842;DHT22;1936;47.074;15.336;2023-03-01T05:09:33;3.40;70.80
3842;DHT22;1936;47.074;15.336;2023-03-01T05:11:37;3.40;70.50
3842;DHT22;1936;47.074;15.336;2023-03-01T05:13:42;3.30;70.10
3842;DHT22;1936;47.074;15.336;2023-03-01T05:15:46;3.30;71.00
3842;DHT22;1936;47.074;15.336;2023-03-01T05:17:50;3.40;69.80
3842;DHT22;1936;47.074;15.336;2023-03-01T05:19:54;3.50;68.80
3842;DHT22;1936;47.074;15.336;2023-03-01T05:21:57;3.40;68.90
3842;DHT22;1936;47.074;15.336;2023-03-01T05:24:07;3.40;69.80
3842;DHT22;1936;47.074;15.336;2023-03-01T05:26:13;3.40;70.00
3842;DHT22;1936;47.074;15.336;2023-03-01T05:28:29;3.40;70.30
3842;DHT22;1936;47.074;15.336;2023-03-01T05:30:34;3.40;69.90
3842;DHT22;1936;47.074;15.336;2023-03-01T05:32:43;3.40;69.70
3842;DHT22;1936;47.074;15.336;2023-03-01T05:34:47;3.40;69.90
3842;DHT22;1936;47.074;15.336;2023-03-01T05:36:51;3.30;70.80
3842;DHT22;1936;47.074;15.336;2023-03-01T05:38:55;3.30;70.60
3842;DHT22;1936;47.074;15.336;2023-03-01T05:40:58;3.40;70.10
3842;DHT22;1936;47.074;15.336;2023-03-01T05:43:02;3.40;70.10
3842;DHT22;1936;47.074;15.336;2023-03-01T05:45:08;3.40;70.00
3842;DHT22;1936;47.074;15.336;2023-03-01T05:47:13;3.40;70.10
3842;DHT22;1936;47.074;15.336;2023-03-01T05:49:17;3.40;70.00
3842;DHT22;1936;47.074;15.336;2023-03-01T05:51:20;3.40;70.00
3842;DHT22;1936;47.074;15.336;2023-03-01T05:53:24;3.40;70.90
3842;DHT22;1936;47.074;15.336;2023-03-01T05:55:29;3.40;70.50
3842;DHT22;1936;47.074;15.336;2023-03-01T05:57:32;3.30;71.20
3842;DHT22;1936;47.074;15.336;2023-03-01T05:59:36;3.30;71.30
3842;DHT22;1936;47.074;15.336;2023-03-01T06:01:39;3.40;71.30
3842;DHT22;1936;47.074;15.336;2023-03-01T06:03:44;3.30;71.40
3842;DHT22;1936;47.074;15.336;2023-03-01T06:05:47;3.40;72.00
3842;DHT22;1936;47.074;15.336;2023-03-01T06:07:51;3.40;71.70
3842;DHT22;1936;47.074;15.336;2023-03-01T06:09:55;3.40;72.00
3842;DHT22;1936;47.074;15.336;2023-03-01T06:11:58;3.40;72.70
3842;DHT22;1936;47.074;15.336;2023-03-01T06:14:02;3.40;72.20
3842;DHT22;1936;47.074;15.336;2023-03-01T06:16:07;3.40;72.30
3842;DHT22;1936;47.074;15.336;2023-03-01T06:18:10;3.50;71.70
3842;DHT22;1936;47.074;15.336;2023-03-01T06:20:17;3.50;71.30
3842;DHT22;1936;47.074;15.336;2023-03-01T06:22:21;3.60;71.30
3842;DHT22;1936;47.074;15.336;2023-03-01T06:24:24;3.60;70.90
3842;DHT22;1936;47.074;15.336;2023-03-01T06:26:30;3.70;70.60
3842;DHT22;1936;47.074;15.336;2023-03-01T06:28:34;3.70;70.80
3842;DHT22;1936;47.074;15.336;2023-03-01T06:30:37;3.70;71.00
3842;DHT22;1936;47.074;15.336;2023-03-01T06:32:41;3.70;70.80
3842;DHT22;1936;47.074;15.336;2023-03-01T06:34:45;3.70;71.00
3842;DHT22;1936;47.074;15.336;2023-03-01T06:36:49;3.80;70.40
3842;DHT22;1936;47.074;15.336;2023-03-01T06:38:53;3.80;69.80
3842;DHT22;1936;47.074;15.336;2023-03-01T06:40:57;3.90;69.60
3842;DHT22;1936;47.074;15.336;2023-03-01T06:43:00;3.80;69.80
3842;DHT22;1936;47.074;15.336;2023-03-01T06:45:05;3.80;69.40
3842;DHT22;1936;47.074;15.336;2023-03-01T06:47:09;3.90;68.90
3842;DHT22;1936;47.074;15.336;2023-03-01T06:49:12;3.90;68.50
3842;DHT22;1936;47.074;15.336;2023-03-01T06:51:17;3.90;68.90
3842;DHT22;1936;47.074;15.336;2023-03-01T06:53:22;3.80;69.10
3842;DHT22;1936;47.074;15.336;2023-03-01T06:55:26;3.90;69.70
3842;DHT22;1936;47.074;15.336;2023-03-01T06:57:29;4.00;69.50
3842;DHT22;1936;47.074;15.336;2023-03-01T06:59:33;4.10;69.20
3842;DHT22;1936;47.074;15.336;2023-03-01T07:01:36;4.20;68.90
3842;DHT22;1936;47.074;15.336;2023-03-01T07:03:40;4.30;68.70
3842;DHT22;1936;47.074;15.336;2023-03-01T07:05:48;4.20;68.40
3842;DHT22;1936;47.074;15.336;2023-03-01T07:07:53;4.20;68.60
3842;DHT22;1936;47.074;15.336;2023-03-01T07:09:59;4.00;68.90
3842;DHT22;1936;47.074;15.336;2023-03-01T07:12:03;4.00;69.00
3842;DHT22;1936;47.074;15.336;2023-03-01T07:14:07;4.00;69.00
3842;DHT22;1936;47.074;15.336;2023-03-01T07:16:10;4.10;68.60
3842;DHT22;1936;47.074;15.336;2023-03-01T07:18:14;4.00;69.20
3842;DHT22;1936;47.074;15.336;2023-03-01T07:20:18;4.10;69.20
3842;DHT22;1936;47.074;15.336;2023-03-01T07:22:24;4.10;67.80
3842;DHT22;1936;47.074;15.336;2023-03-01T07:24:28;4.20;67.50
3842;DHT22;1936;47.074;15.336;2023-03-01T07:26:32;4.30;67.60
3842;DHT22;1936;47.074;15.336;2023-03-01T07:28:36;4.40;67.10
3842;DHT22;1936;47.074;15.336;2023-03-01T07:30:41;4.60;66.00
3842;DHT22;1936;47.074;15.336;2023-03-01T07:32:44;4.70;65.90
3842;DHT22;1936;47.074;15.336;2023-03-01T07:34:48;4.70;65.90
3842;DHT22;1936;47.074;15.336;2023-03-01T07:36:52;4.70;65.90
3842;DHT22;1936;47.074;15.336;2023-03-01T07:38:55;4.70;65.10
3842;DHT22;1936;47.074;15.336;2023-03-01T07:41:00;4.70;65.30
3842;DHT22;1936;47.074;15.336;2023-03-01T07:43:05;4.80;65.40
3842;DHT22;1936;47.074;15.336;2023-03-01T07:45:10;4.80;66.10
3842;DHT22;1936;47.074;15.336;2023-03-01T07:47:15;4.80;65.90
3842;DHT22;1936;47.074;15.336;2023-03-01T07:49:19;4.90;65.30
3842;DHT22;1936;47.074;15.336;2023-03-01T07:51:22;4.90;65.80
3842;DHT22;1936;47.074;15.336;2023-03-01T07:53:26;5.00;64.70
3842;DHT22;1936;47.074;15.336;2023-03-01T07:55:29;5.00;64.30
3842;DHT22;1936;47.074;15.336;2023-03-01T07:57:32;4.90;63.60
3842;DHT22;1936;47.074;15.336;2023-03-01T07:59:37;5.10;62.50
3842;DHT22;1936;47.074;15.336;2023-03-01T08:01:42;5.10;60.60
3842;DHT22;1936;47.074;15.336;2023-03-01T08:03:45;5.00;59.60
3842;DHT22;1936;47.074;15.336;2023-03-01T08:05:49;5.20;58.30
3842;DHT22;1936;47.074;15.336;2023-03-01T08:07:52;5.20;58.40
3842;DHT22;1936;47.074;15.336;2023-03-01T08:09:55;5.30;59.70
3842;DHT22;1936;47.074;15.336;2023-03-01T08:12:00;5.20;60.30
3842;DHT22;1936;47.074;15.336;2023-03-01T08:14:03;5.20;60.00
3842;DHT22;1936;47.074;15.336;2023-03-01T08:16:11;5.20;60.30
3842;DHT22;1936;47.074;15.336;2023-03-01T08:18:15;5.10;59.00
3842;DHT22;1936;47.074;15.336;2023-03-01T08:20:18;5.30;57.50
3842;DHT22;1936;47.074;15.336;2023-03-01T08:22:22;5.30;56.50
3842;DHT22;1936;47.074;15.336;2023-03-01T08:24:26;5.20;57.20
3842;DHT22;1936;47.074;15.336;2023-03-01T08:26:30;5.20;57.90
3842;DHT22;1936;47.074;15.336;2023-03-01T08:28:34;5.20;57.20
3842;DHT22;1936;47.074;15.336;2023-03-01T08:30:37;5.20;58.50
3842;DHT22;1936;47.074;15.336;2023-03-01T08:32:42;5.20;59.30
3842;DHT22;1936;47.074;15.336;2023-03-01T08:34:47;5.10;59.10
3842;DHT22;1936;47.074;15.336;2023-03-01T08:36:50;4.90;60.00
3842;DHT22;1936;47.074;15.336;2023-03-01T08:38:55;5.00;60.80
3842;DHT22;1936;47.074;15.336;2023-03-01T08:41:00;4.90;61.60
3842;DHT22;1936;47.074;15.336;2023-03-01T08:43:03;5.20;61.50
3842;DHT22;1936;47.074;15.336;2023-03-01T08:45:08;5.30;60.30
3842;DHT22;1936;47.074;15.336;2023-03-01T08:47:12;5.40;59.90
3842;DHT22;1936;47.074;15.336;2023-03-01T08:49:18;5.20;60.40
3842;DHT22;1936;47.074;15.336;2023-03-01T08:51:22;5.30;60.30
3842;DHT22;1936;47.074;15.336;2023-03-01T08:53:26;5.30;60.30
3842;DHT22;1936;47.074;15.336;2023-03-01T08:55:29;5.20;59.80
3842;DHT22;1936;47.074;15.336;2023-03-01T08:57:32;5.50;60.20
3842;DHT22;1936;47.074;15.336;2023-03-01T08:59:36;5.70;59.60
3842;DHT22;1936;47.074;15.336;2023-03-01T09:01:40;5.90;59.60
3842;DHT22;1936;47.074;15.336;2023-03-01T09:03:45;5.80;60.10
3842;DHT22;1936;47.074;15.336;2023-03-01T09:05:51;6.00;58.80
3842;DHT22;1936;47.074;15.336;2023-03-01T09:07:54;5.70;60.00
3842;DHT22;1936;47.074;15.336;2023-03-01T09:09:58;6.00;59.00
3842;DHT22;1936;47.074;15.336;2023-03-01T09:12:02;6.20;57.60
3842;DHT22;1936;47.074;15.336;2023-03-01T09:14:05;6.10;57.80
3842;DHT22;1936;47.074;15.336;2023-03-01T09:16:11;6.20;57.10
3842;DHT22;1936;47.074;15.336;2023-03-01T09:18:15;6.30;57.50
3842;DHT22;1936;47.074;15.336;2023-03-01T09:20:18;6.50;56.70
3842;DHT22;1936;47.074;15.336;2023-03-01T09:22:23;6.50;57.00
3842;DHT22;1936;47.074;15.336;2023-03-01T09:24:26;6.40;57.10
3842;DHT22;1936;47.074;15.336;2023-03-01T09:26:30;6.20;55.00
3842;DHT22;1936;47.074;15.336;2023-03-01T09:28:34;6.10;57.10
3842;DHT22;1936;47.074;15.336;2023-03-01T09:30:38;6.30;57.00
3842;DHT22;1936;47.074;15.336;2023-03-01T09:32:41;6.60;56.90
3842;DHT22;1936;47.074;15.336;2023-03-01T09:34:46;6.60;57.30
3842;DHT22;1936;47.074;15.336;2023-03-01T09:37:07;6.00;55.30
3842;DHT22;1936;47.074;15.336;2023-03-01T09:39:11;6.30;56.20
3842;DHT22;1936;47.074;15.336;2023-03-01T09:41:30;6.70;56.10
3842;DHT22;1936;47.074;15.336;2023-03-01T09:43:44;6.80;56.30
3842;DHT22;1936;47.074;15.336;2023-03-01T09:45:50;6.90;56.80
3842;DHT22;1936;47.074;15.336;2023-03-01T09:47:56;7.00;55.00
3842;DHT22;1936;47.074;15.336;2023-03-01T09:50:04;7.10;54.70
3842;DHT22;1936;47.074;15.336;2023-03-01T09:52:30;7.40;54.80
3842;DHT22;1936;47.074;15.336;2023-03-01T09:54:38;6.80;54.90
3842;DHT22;1936;47.074;15.336;2023-03-01T09:56:46;7.00;55.00
3842;DHT22;1936;47.074;15.336;2023-03-01T09:58:56;6.80;54.10
3842;DHT22;1936;47.074;15.336;2023-03-01T10:01:15;6.90;55.20
3842;DHT22;1936;47.074;15.336;2023-03-01T10:03:26;6.30;55.50
3842;DHT22;1936;47.074;15.336;2023-03-01T10:05:47;6.60;56.10
3842;DHT22;1936;47.074;15.336;2023-03-01T10:08:02;6.30;54.90
3842;DHT22;1936;47.074;15.336;2023-03-01T10:10:24;6.60;56.20
3842;DHT22;1936;47.074;15.336;2023-03-01T10:12:34;6.90;54.70
3842;DHT22;1936;47.074;15.336;2023-03-01T10:14:46;7.10;54.70
3842;DHT22;1936;47.074;15.336;2023-03-01T10:16:54;7.00;53.90
3842;DHT22;1936;47.074;15.336;2023-03-01T10:19:03;7.00;55.00
3842;DHT22;1936;47.074;15.336;2023-03-01T10:21:14;7.20;55.40
3842;DHT22;1936;47.074;15.336;2023-03-01T10:23:18;7.20;54.90
3842;DHT22;1936;47.074;15.336;2023-03-01T10:25:36;6.40;53.60
3842;DHT22;1936;47.074;15.336;2023-03-01T10:27:51;5.80;55.20
3842;DHT22;1936;47.074;15.336;2023-03-01T10:30:01;5.90;56.00
3842;DHT22;1936;47.074;15.336;2023-03-01T10:32:10;6.10;56.60
3842;DHT22;1936;47.074;15.336;2023-03-01T10:34:15;6.30;56.80
3842;DHT22;1936;47.074;15.336;2023-03-01T10:36:19;6.40;55.60
3842;DHT22;1936;47.074;15.336;2023-03-01T10:38:22;6.60;54.30
3842;DHT22;1936;47.074;15.336;2023-03-01T10:40:29;6.70;54.80
3842;DHT22;1936;47.074;15.336;2023-03-01T10:42:34;6.70;54.80
3842;DHT22;1936;47.074;15.336;2023-03-01T10:44:42;6.80;53.60
3842;DHT22;1936;47.074;15.336;2023-03-01T10:46:59;6.60;54.80
3842;DHT22;1936;47.074;15.336;2023-03-01T10:49:09;6.60;54.50
3842;DHT22;1936;47.074;15.336;2023-03-01T10:51:17;6.70;54.50
3842;DHT22;1936;47.074;15.336;2023-03-01T10:53:24;6.50;55.20
3842;DHT22;1936;47.074;15.336;2023-03-01T10:55:33;6.20;57.10
3842;DHT22;1936;47.074;15.336;2023-03-01T10:57:39;6.50;56.30
3842;DHT22;1936;47.074;15.336;2023-03-01T10:59:44;6.50;56.00
3842;DHT22;1936;47.074;15.336;2023-03-01T11:02:02;6.70;55.10
3842;DHT22;1936;47.074;15.336;2023-03-01T11:04:15;6.40;55.70
3842;DHT22;1936;47.074;15.336;2023-03-01T11:06:21;6.60;55.40
3842;DHT22;1936;47.074;15.336;2023-03-01T11:08:40;6.40;55.40
3842;DHT22;1936;47.074;15.336;2023-03-01T11:10:45;6.20;56.20
3842;DHT22;1936;47.074;15.336;2023-03-01T11:12:50;6.10;56.80
3842;DHT22;1936;47.074;15.336;2023-03-01T11:14:54;6.30;57.00
3842;DHT22;1936;47.074;15.336;2023-03-01T11:17:00;6.40;56.50
3842;DHT22;1936;47.074;15.336;2023-03-01T11:19:18;6.70;56.90
3842;DHT22;1936;47.074;15.336;2023-03-01T11:21:23;6.60;56.20
3842;DHT22;1936;47.074;15.336;2023-03-01T11:23:29;6.70;56.70
3842;DHT22;1936;47.074;15.336;2023-03-01T11:25:36;6.60;56.00
3842;DHT22;1936;47.074;15.336;2023-03-01T11:27:44;6.40;56.90
3842;DHT22;1936;47.074;15.336;2023-03-01T11:29:52;6.40;57.30
3842;DHT22;1936;47.074;15.336;2023-03-01T11:32:00;6.50;57.50
3842;DHT22;1936;47.074;15.336;2023-03-01T11:34:10;6.50;57.40
3842;DHT22;1936;47.074;15.336;2023-03-01T11:36:22;6.70;57.00
3842;DHT22;1936;47.074;15.336;2023-03-01T11:38:28;6.80;57.00
3842;DHT22;1936;47.074;15.336;2023-03-01T11:40:35;6.80;56.40
3842;DHT22;1936;47.074;15.336;2023-03-01T11:42:51;6.90;56.90
3842;DHT22;1936;47.074;15.336;2023-03-01T11:44:59;7.20;56.50
3842;DHT22;1936;47.074;15.336;2023-03-01T11:47:14;7.10;55.30
3842;DHT22;1936;47.074;15.336;2023-03-01T11:49:46;7.20;56.70
3842;DHT22;1936;47.074;15.336;2023-03-01T11:51:59;7.10;56.70
3842;DHT22;1936;47.074;15.336;2023-03-01T11:54:13;7.20;57.50
3842;DHT22;1936;47.074;15.336;2023-03-01T11:56:29;6.90;56.80
3842;DHT22;1936;47.074;15.336;2023-03-01T11:59:16;6.80;58.00
3842;DHT22;1936;47.074;15.336;2023-03-01T12:01:32;7.20;57.10
3842;DHT22;1936;47.074;15.336;2023-03-01T12:03:53;7.30;56.40
3842;DHT22;1936;47.074;15.336;2023-03-01T12:06:16;7.10;56.10
3842;DHT22;1936;47.074;15.336;2023-03-01T12:08:31;7.20;56.50
3842;DHT22;1936;47.074;15.336;2023-03-01T12:10:42;7.40;55.00
3842;DHT22;1936;47.074;15.336;2023-03-01T12:13:03;7.20;55.50
3842;DHT22;1936;47.074;15.336;2023-03-01T12:15:33;7.40;56.60
3842;DHT22;1936;47.074;15.336;2023-03-01T12:17:56;7.50;56.00
3842;DHT22;1936;47.074;15.336;2023-03-01T12:20:11;7.80;55.50
3842;DHT22;1936;47.074;15.336;2023-03-01T12:22:28;7.90;55.10
3842;DHT22;1936;47.074;15.336;2023-03-01T12:24:51;7.70;54.40
3842;DHT22;1936;47.074;15.336;2023-03-01T12:27:08;7.90;55.10
3842;DHT22;1936;47.074;15.336;2023-03-01T12:29:20;8.30;54.00
3842;DHT22;1936;47.074;15.336;2023-03-01T12:34:19;8.30;55.20
3842;DHT22;1936;47.074;15.336;2023-03-01T12:36:38;8.40;54.80
3842;DHT22;1936;47.074;15.336;2023-03-01T12:38:48;8.20;52.30
3842;DHT22;1936;47.074;15.336;2023-03-01T12:43:36;8.40;54.40
3842;DHT22;1936;47.074;15.336;2023-03-01T12:45:54;8.30;53.70
3842;DHT22;1936;47.074;15.336;2023-03-01T12:48:30;8.40;54.40
3842;DHT22;1936;47.074;15.336;2023-03-01T12:50:40;8.40;54.20
3842;DHT22;1936;47.074;15.336;2023-03-01T12:52:47;8.50;54.80
3842;DHT22;1936;47.074;15.336;2023-03-01T12:54:51;7.90;54.10
3842;DHT22;1936;47.074;15.336;2023-03-01T12:56:59;8.10;55.00
3842;DHT22;1936;47.074;15.336;2023-03-01T12:59:13;8.50;55.30
3842;DHT22;1936;47.074;15.336;2023-03-01T13:01:25;8.70;54.20
3842;DHT22;1936;47.074;15.336;2023-03-01T13:03:51;8.80;53.50
3842;DHT22;1936;47.074;15.336;2023-03-01T13:06:07;9.00;53.80
3842;DHT22;1936;47.074;15.336;2023-03-01T13:08:16;9.10;53.20
3842;DHT22;1936;47.074;15.336;2023-03-01T13:10:29;8.50;52.10
3842;DHT22;1936;47.074;15.336;2023-03-01T13:12:46;8.30;54.20
3842;DHT22;1936;47.074;15.336;2023-03-01T13:14:54;8.00;54.70
3842;DHT22;1936;47.074;15.336;2023-03-01T13:16:58;7.70;55.80
3842;DHT22;1936;47.074;15.336;2023-03-01T13:19:13;7.80;55.80
3842;DHT22;1936;47.074;15.336;2023-03-01T13:21:30;7.90;56.20
3842;DHT22;1936;47.074;15.336;2023-03-01T13:23:39;8.20;55.70
3842;DHT22;1936;47.074;15.336;2023-03-01T13:26:07;7.90;55.90
3842;DHT22;1936;47.074;15.336;2023-03-01T13:28:36;7.70;56.10
3842;DHT22;1936;47.074;15.336;2023-03-01T13:30:41;7.60;56.90
3842;DHT22;1936;47.074;15.336;2023-03-01T13:32:45;7.70;57.00
3842;DHT22;1936;47.074;15.336;2023-03-01T13:34:55;7.70;56.00
3842;DHT22;1936;47.074;15.336;2023-03-01T13:37:09;7.70;56.80
3842;DHT22;1936;47.074;15.336;2023-03-01T13:39:28;7.80;56.50
3842;DHT22;1936;47.074;15.336;2023-03-01T13:41:51;8.00;56.20
3842;DHT22;1936;47.074;15.336;2023-03-01T13:43:55;8.10;55.40
3842;DHT22;1936;47.074;15.336;2023-03-01T13:45:59;8.20;55.40
3842;DHT22;1936;47.074;15.336;2023-03-01T13:48:17;8.10;54.90
3842;DHT22;1936;47.074;15.336;2023-03-01T13:50:28;8.10;56.00
3842;DHT22;1936;47.074;15.336;2023-03-01T13:52:38;7.40;55.40
3842;DHT22;1936;47.074;15.336;2023-03-01T13:54:43;7.60;56.80
3842;DHT22;1936;47.074;15.336;2023-03-01T13:56:46;8.00;56.20